createdAt,value
2019-05-25T00:00:33.130Z,44.74
2019-05-25T00:01:33.091Z,44.74
2019-05-25T00:02:33.088Z,45.14
2019-05-25T00:03:33.068Z,45.14
2019-05-25T00:04:33.090Z,46.36
2019-05-25T00:05:33.053Z,46.66
2019-05-25T00:06:33.046Z,46.36
2019-05-25T00:07:33.030Z,46.66
2019-05-25T00:08:33.030Z,46.78
2019-05-25T00:09:33.011Z,47.19
2019-05-25T00:10:33.008Z,47.08
2019-05-25T00:11:32.984Z,46.86
2019-05-25T00:12:32.974Z,46.78
2019-05-25T00:13:32.974Z,46.78
2019-05-25T00:14:32.947Z,47.79
2019-05-25T00:15:32.969Z,47.19
2019-05-25T00:16:32.923Z,47.39
2019-05-25T00:17:32.935Z,47.19
2019-05-25T00:18:32.917Z,47.41
2019-05-25T00:19:32.897Z,47.41
2019-05-25T00:20:32.929Z,47.51
2019-05-25T00:21:32.876Z,47.51
2019-05-25T00:22:32.868Z,47.61
2019-05-25T00:23:32.853Z,47.81
2019-05-25T00:24:32.850Z,47.81
2019-05-25T00:25:32.858Z,47.81
2019-05-25T00:26:32.829Z,48.02
2019-05-25T00:27:32.811Z,47.51
2019-05-25T00:28:32.805Z,47.91
2019-05-25T00:29:32.812Z,47.81
2019-05-25T00:30:32.787Z,47.91
2019-05-25T00:31:32.777Z,47.71
2019-05-25T00:32:32.752Z,47.61
2019-05-25T00:33:32.744Z,48.32
2019-05-25T00:34:32.749Z,48.34
2019-05-25T00:35:32.748Z,48.32
2019-05-25T00:36:32.714Z,47.94
2019-05-25T00:37:32.702Z,48.24
2019-05-25T00:38:32.689Z,48.44
2019-05-25T00:39:32.687Z,48.24
2019-05-25T00:40:32.682Z,48.57
2019-05-25T00:41:32.658Z,48.24
2019-05-25T00:42:32.670Z,48.34
2019-05-25T00:43:32.635Z,48.24
2019-05-25T00:44:32.628Z,49.35
2019-05-25T00:45:32.647Z,49.66
2019-05-25T00:46:32.608Z,49.88
2019-05-25T00:47:32.592Z,49.98
2019-05-25T00:48:32.590Z,49.86
2019-05-25T00:49:32.574Z,49.88
2019-05-25T00:50:32.584Z,49.98
2019-05-25T00:51:32.553Z,49.90
2019-05-25T00:52:32.543Z,49.98
2019-05-25T00:53:32.528Z,49.60
2019-05-25T00:54:32.517Z,49.90
2019-05-25T00:55:32.531Z,51.12
2019-05-25T00:56:32.496Z,50.92
2019-05-25T00:57:32.491Z,51.22
2019-05-25T00:58:32.471Z,51.83
2019-05-25T00:59:32.473Z,51.86
2019-05-25T01:00:32.473Z,51.73
2019-05-25T01:01:32.442Z,51.95
2019-05-25T01:02:32.432Z,52.15
2019-05-25T01:03:32.419Z,51.95
2019-05-25T01:04:32.424Z,51.86
2019-05-25T01:05:32.430Z,52.56
2019-05-25T01:06:32.388Z,52.97
2019-05-25T01:07:32.375Z,52.46
2019-05-25T01:08:32.378Z,52.46
2019-05-25T01:09:32.357Z,53.47
2019-05-25T01:10:32.358Z,53.37
2019-05-25T01:11:32.333Z,53.09
2019-05-25T01:12:32.325Z,53.60
2019-05-25T01:13:32.317Z,54.11
2019-05-25T01:14:32.318Z,54.71
2019-05-25T01:15:32.307Z,54.51
2019-05-25T01:16:32.301Z,54.00
2019-05-25T01:17:32.271Z,54.33
2019-05-25T01:18:32.264Z,54.03
2019-05-25T01:19:32.247Z,53.93
2019-05-25T01:20:32.328Z,54.74
2019-05-25T01:21:32.226Z,55.15
2019-05-25T01:22:32.335Z,55.15
2019-05-25T01:23:32.221Z,55.76
2019-05-25T01:24:43.951Z,55.35
2019-05-25T01:25:33.214Z,55.96
2019-05-25T01:26:32.175Z,56.09
2019-05-25T01:27:32.174Z,56.26
2019-05-25T01:28:32.160Z,56.59
2019-05-25T01:29:32.140Z,56.79
2019-05-25T01:30:32.158Z,56.90
2019-05-25T01:31:32.116Z,56.79
2019-05-25T01:32:32.111Z,57.30
2019-05-25T01:33:32.101Z,56.79
2019-05-25T01:34:32.087Z,56.99
2019-05-25T01:35:32.094Z,57.30
2019-05-25T01:36:32.064Z,57.50
2019-05-25T01:37:32.060Z,57.91
2019-05-25T01:38:32.039Z,58.14
2019-05-25T01:39:32.037Z,58.01
2019-05-25T01:40:32.043Z,58.24
2019-05-25T01:41:32.008Z,58.78
2019-05-25T01:42:32.013Z,58.45
2019-05-25T01:43:31.988Z,58.45
2019-05-25T01:44:31.980Z,58.95
2019-05-25T01:45:31.987Z,58.85
2019-05-25T01:46:31.955Z,58.98
2019-05-25T01:47:31.944Z,58.78
2019-05-25T01:48:31.938Z,58.58
2019-05-25T01:49:31.924Z,58.67
2019-05-25T01:50:31.925Z,58.88
2019-05-25T01:51:31.915Z,58.78
2019-05-25T01:52:31.912Z,59.39
2019-05-25T01:53:31.886Z,58.47
2019-05-25T01:54:31.872Z,59.41
2019-05-25T01:55:31.875Z,59.82
2019-05-25T01:56:31.853Z,59.69
2019-05-25T01:57:31.839Z,60.33
2019-05-25T01:58:31.832Z,60.33
2019-05-25T01:59:31.815Z,60.63
2019-05-25T02:00:31.826Z,60.94
2019-05-25T02:01:31.811Z,60.74
2019-05-25T02:02:31.789Z,60.94
2019-05-25T02:03:31.776Z,61.44
2019-05-25T02:04:31.770Z,61.24
2019-05-25T02:05:39.045Z,61.07
2019-05-25T02:06:31.739Z,61.68
2019-05-25T02:07:31.737Z,62.29
2019-05-25T02:08:31.728Z,62.08
2019-05-25T02:09:31.708Z,62.49
2019-05-25T02:10:31.750Z,62.49
2019-05-25T02:11:31.710Z,62.59
2019-05-25T02:12:31.677Z,62.90
2019-05-25T02:13:31.671Z,62.59
2019-05-25T02:14:31.660Z,62.70
2019-05-25T02:15:31.679Z,63.64
2019-05-25T02:16:31.635Z,63.51
2019-05-25T02:17:31.649Z,62.72
2019-05-25T02:18:31.613Z,63.00
2019-05-25T02:19:31.601Z,63.60
2019-05-25T02:20:31.587Z,63.84
2019-05-25T02:21:31.613Z,64.25
2019-05-25T02:22:31.575Z,64.35
2019-05-25T02:23:31.563Z,64.86
2019-05-25T02:24:31.562Z,64.65
2019-05-25T02:25:31.541Z,64.35
2019-05-25T02:26:31.550Z,64.45
2019-05-25T02:27:31.538Z,64.86
2019-05-25T02:28:31.578Z,64.86
2019-05-25T02:29:31.492Z,65.19
2019-05-25T02:30:31.489Z,65.16
2019-05-25T02:31:31.492Z,65.09
2019-05-25T02:32:31.471Z,64.96
2019-05-25T02:33:31.460Z,65.19
2019-05-25T02:34:31.443Z,65.39
2019-05-25T02:35:31.425Z,65.50
2019-05-25T02:36:31.489Z,65.39
2019-05-25T02:37:31.426Z,65.80
2019-05-25T02:38:31.425Z,66.35
2019-05-25T02:39:31.385Z,66.14
2019-05-25T02:40:31.383Z,66.65
2019-05-25T02:41:31.362Z,66.75
2019-05-25T02:42:31.353Z,66.65
2019-05-25T02:43:31.375Z,66.75
2019-05-25T02:44:31.336Z,67.16
2019-05-25T02:45:31.322Z,66.96
2019-05-25T02:46:31.334Z,67.66
2019-05-25T02:47:31.301Z,67.66
2019-05-25T02:48:31.289Z,68.10
2019-05-25T02:49:31.283Z,68.31
2019-05-25T02:50:31.269Z,68.51
2019-05-25T02:51:31.274Z,68.01
2019-05-25T02:52:31.254Z,68.82
2019-05-25T02:53:31.238Z,68.62
2019-05-25T02:54:31.234Z,69.26
2019-05-25T02:55:34.837Z,69.12
2019-05-25T02:56:31.221Z,69.46
2019-05-25T02:57:31.194Z,69.32
2019-05-25T02:58:31.182Z,69.23
2019-05-25T02:59:31.181Z,69.23
2019-05-25T03:00:31.170Z,69.67
2019-05-25T03:01:31.176Z,69.53
2019-05-25T03:02:31.149Z,69.43
2019-05-25T03:03:31.152Z,69.32
2019-05-25T03:04:31.120Z,69.32
2019-05-25T03:05:31.122Z,69.32
2019-05-25T03:06:31.127Z,69.12
2019-05-25T03:07:31.088Z,69.23
2019-05-25T03:08:31.076Z,70.04
2019-05-25T03:09:31.074Z,69.93
2019-05-25T03:10:31.055Z,70.04
2019-05-25T03:11:31.060Z,70.14
2019-05-25T03:12:31.042Z,70.24
2019-05-25T03:13:31.023Z,70.04
2019-05-25T03:14:31.021Z,69.93
2019-05-25T03:15:31.007Z,69.97
2019-05-25T03:16:31.014Z,70.07
2019-05-25T03:17:30.996Z,70.48
2019-05-25T03:18:30.978Z,70.58
2019-05-25T03:19:30.977Z,70.78
2019-05-25T03:20:30.955Z,70.99
2019-05-25T03:21:30.954Z,70.78
2019-05-25T03:22:30.935Z,71.19
2019-05-25T03:23:30.916Z,71.19
2019-05-25T03:24:30.986Z,71.19
2019-05-25T03:25:30.902Z,71.19
2019-05-25T03:26:30.898Z,71.19
2019-05-25T03:27:30.877Z,71.12
2019-05-25T03:28:30.864Z,70.99
2019-05-25T03:29:30.857Z,71.09
2019-05-25T03:30:30.861Z,71.19
2019-05-25T03:31:30.852Z,71.23
2019-05-25T03:32:30.830Z,71.23
2019-05-25T03:33:30.811Z,71.23
2019-05-25T03:34:30.803Z,71.33
2019-05-25T03:35:30.785Z,70.72
2019-05-25T03:36:30.791Z,71.84
2019-05-25T03:37:30.770Z,71.02
2019-05-25T03:38:30.756Z,71.63
2019-05-25T03:39:30.751Z,71.63
2019-05-25T03:40:30.740Z,70.92
2019-05-25T03:41:30.748Z,71.53
2019-05-25T03:42:30.718Z,71.53
2019-05-25T03:43:30.698Z,70.92
2019-05-25T03:44:30.700Z,71.63
2019-05-25T03:45:30.693Z,71.73
2019-05-25T03:46:30.694Z,71.53
2019-05-25T03:47:30.656Z,72.24
2019-05-25T03:48:30.651Z,71.77
2019-05-25T03:49:30.641Z,71.87
2019-05-25T03:50:30.630Z,72.79
2019-05-25T03:51:30.714Z,72.08
2019-05-25T03:52:30.607Z,72.17
2019-05-25T03:53:30.594Z,72.34
2019-05-25T03:54:30.606Z,71.97
2019-05-25T03:55:30.581Z,73.40
2019-05-25T03:56:30.588Z,71.97
2019-05-25T03:57:30.552Z,72.24
2019-05-25T03:58:30.540Z,72.08
2019-05-25T03:59:30.539Z,72.58
2019-05-25T04:00:30.521Z,72.48
2019-05-25T04:01:30.536Z,72.38
2019-05-25T04:02:30.503Z,72.45
2019-05-25T04:03:30.493Z,72.34
2019-05-25T04:04:30.476Z,72.69
2019-05-25T04:05:30.472Z,72.79
2019-05-25T04:06:30.482Z,72.99
2019-05-25T04:07:30.446Z,73.10
2019-05-25T04:08:30.445Z,72.89
2019-05-25T04:09:30.425Z,73.10
2019-05-25T04:10:30.410Z,72.89
2019-05-25T04:11:30.530Z,73.10
2019-05-25T04:12:30.394Z,73.40
2019-05-25T04:13:30.392Z,72.75
2019-05-25T04:14:30.370Z,72.79
2019-05-25T04:15:30.358Z,73.10
2019-05-25T04:16:30.363Z,73.10
2019-05-25T04:17:30.336Z,73.10
2019-05-25T04:18:30.337Z,72.99
2019-05-25T04:19:30.316Z,73.50
2019-05-25T04:20:30.310Z,73.06
2019-05-25T04:21:30.350Z,73.16
2019-05-25T04:22:30.286Z,72.24
2019-05-25T04:23:30.277Z,72.65
2019-05-25T04:24:30.264Z,72.75
2019-05-25T04:25:30.256Z,72.55
2019-05-25T04:26:30.264Z,73.06
2019-05-25T04:27:30.230Z,72.96
2019-05-25T04:28:30.224Z,72.75
2019-05-25T04:29:30.218Z,73.26
2019-05-25T04:30:30.202Z,72.24
2019-05-25T04:31:30.202Z,72.86
2019-05-25T04:32:30.188Z,72.75
2019-05-25T04:33:30.166Z,71.53
2019-05-25T04:34:30.159Z,72.01
2019-05-25T04:35:30.149Z,72.01
2019-05-25T04:36:30.151Z,72.01
2019-05-25T04:37:30.132Z,71.70
2019-05-25T04:38:30.115Z,71.30
2019-05-25T04:39:30.102Z,71.60
2019-05-25T04:40:30.107Z,71.50
2019-05-25T04:41:30.086Z,71.50
2019-05-25T04:42:30.092Z,71.09
2019-05-25T04:43:30.070Z,71.50
2019-05-25T04:44:30.050Z,71.50
2019-05-25T04:45:30.041Z,70.89
2019-05-25T04:46:30.030Z,70.99
2019-05-25T04:47:30.041Z,70.75
2019-05-25T04:48:30.008Z,70.95
2019-05-25T04:49:30.003Z,70.99
2019-05-25T04:50:29.985Z,71.09
2019-05-25T04:51:29.979Z,71.30
2019-05-25T04:52:29.990Z,71.16
2019-05-25T04:53:29.967Z,71.06
2019-05-25T04:54:29.948Z,71.19
2019-05-25T04:55:29.946Z,71.16
2019-05-25T04:56:39.587Z,70.86
2019-05-25T04:57:30.933Z,70.86
2019-05-25T04:58:29.907Z,70.86
2019-05-25T04:59:29.899Z,70.95
2019-05-25T05:00:29.884Z,70.86
2019-05-25T05:01:29.871Z,70.72
2019-05-25T05:02:29.878Z,70.51
2019-05-25T05:03:29.847Z,71.06
2019-05-25T05:04:29.839Z,70.41
2019-05-25T05:05:29.824Z,69.87
2019-05-25T05:06:29.830Z,69.36
2019-05-25T05:07:29.832Z,68.72
2019-05-25T05:08:29.797Z,68.72
2019-05-25T05:09:29.794Z,68.21
2019-05-25T05:10:29.771Z,68.01
2019-05-25T05:11:29.763Z,68.92
2019-05-25T05:12:29.780Z,67.63
2019-05-25T05:13:29.740Z,68.55
2019-05-25T05:14:29.731Z,68.55
2019-05-25T05:15:29.720Z,68.96
2019-05-25T05:16:29.709Z,68.44
2019-05-25T05:17:29.711Z,69.06
2019-05-25T05:18:29.689Z,69.06
2019-05-25T05:19:29.678Z,69.26
2019-05-25T05:20:29.685Z,69.46
2019-05-25T05:21:29.652Z,69.49
2019-05-25T05:22:29.669Z,69.80
2019-05-25T05:23:29.643Z,69.90
2019-05-25T05:24:29.620Z,69.26
2019-05-25T05:25:29.610Z,69.40
2019-05-25T05:26:29.598Z,69.36
2019-05-25T05:27:29.610Z,69.46
2019-05-25T05:28:29.575Z,69.16
2019-05-25T05:29:29.573Z,68.75
2019-05-25T05:30:29.556Z,69.40
2019-05-25T05:31:29.554Z,69.16
2019-05-25T05:32:29.558Z,69.09
2019-05-25T05:33:29.549Z,68.99
2019-05-25T05:34:29.515Z,68.79
2019-05-25T05:35:29.541Z,69.06
2019-05-25T05:36:29.493Z,69.06
2019-05-25T05:37:29.498Z,69.09
2019-05-25T05:38:29.471Z,68.75
2019-05-25T05:39:29.464Z,69.36
2019-05-25T05:40:29.449Z,69.46
2019-05-25T05:41:31.207Z,69.16
2019-05-25T05:42:29.445Z,69.36
2019-05-25T05:43:29.417Z,68.75
2019-05-25T05:44:29.416Z,69.16
2019-05-25T05:45:29.391Z,68.75
2019-05-25T05:46:29.399Z,68.04
2019-05-25T05:47:29.392Z,68.85
2019-05-25T05:48:29.366Z,68.85
2019-05-25T05:49:29.350Z,68.24
2019-05-25T05:50:29.355Z,68.55
2019-05-25T05:51:29.329Z,68.24
2019-05-25T05:52:29.341Z,67.33
2019-05-25T05:53:29.307Z,67.40
2019-05-25T05:54:29.300Z,67.30
2019-05-25T05:55:29.297Z,67.50
2019-05-25T05:56:29.277Z,67.30
2019-05-25T05:57:29.286Z,66.99
2019-05-25T05:58:29.267Z,66.89
2019-05-25T05:59:29.252Z,66.99
2019-05-25T06:00:29.237Z,66.69
2019-05-25T06:01:29.218Z,66.89
2019-05-25T06:02:29.270Z,67.10
2019-05-25T06:03:29.203Z,66.79
2019-05-25T06:04:38.317Z,66.18
2019-05-25T06:05:29.185Z,65.64
2019-05-25T06:06:29.169Z,65.16
2019-05-25T06:07:29.181Z,65.13
2019-05-25T06:08:29.156Z,65.44
2019-05-25T06:09:29.155Z,65.88
2019-05-25T06:10:29.149Z,65.64
2019-05-25T06:11:29.116Z,65.64
2019-05-25T06:12:29.122Z,64.93
2019-05-25T06:13:29.104Z,65.30
2019-05-25T06:14:29.083Z,65.10
2019-05-25T06:15:29.097Z,65.10
2019-05-25T06:16:29.058Z,64.79
2019-05-25T06:17:29.070Z,65.00
2019-05-25T06:18:29.040Z,64.87
2019-05-25T06:19:29.030Z,64.76
2019-05-25T06:20:29.050Z,64.46
2019-05-25T06:21:29.023Z,64.06
2019-05-25T06:22:29.045Z,64.56
2019-05-25T06:23:29.002Z,64.26
2019-05-25T06:24:28.979Z,65.51
2019-05-25T06:25:28.972Z,64.76
2019-05-25T06:26:28.957Z,64.46
2019-05-25T06:27:28.987Z,64.67
2019-05-25T06:28:28.932Z,64.15
2019-05-25T06:29:28.923Z,64.13
2019-05-25T06:30:28.916Z,64.03
2019-05-25T06:31:28.912Z,64.03
2019-05-25T06:32:28.905Z,63.82
2019-05-25T06:33:28.878Z,64.13
2019-05-25T06:34:28.867Z,63.08
2019-05-25T06:35:28.862Z,63.29
2019-05-25T06:36:28.864Z,63.39
2019-05-25T06:37:28.838Z,63.29
2019-05-25T06:38:28.845Z,63.29
2019-05-25T06:39:28.817Z,62.48
2019-05-25T06:40:28.805Z,63.21
2019-05-25T06:41:28.793Z,62.98
2019-05-25T06:42:28.785Z,62.88
2019-05-25T06:43:28.787Z,62.54
2019-05-25T06:44:28.775Z,62.65
2019-05-25T06:45:28.751Z,61.94
2019-05-25T06:46:28.736Z,62.34
2019-05-25T06:47:28.730Z,62.54
2019-05-25T06:48:28.743Z,63.29
2019-05-25T06:49:28.706Z,63.18
2019-05-25T06:50:28.700Z,63.49
2019-05-25T06:51:28.681Z,62.68
2019-05-25T06:52:28.676Z,63.46
2019-05-25T06:53:28.690Z,63.08
2019-05-25T06:54:28.652Z,62.57
2019-05-25T06:55:28.647Z,62.88
2019-05-25T06:56:28.636Z,62.78
2019-05-25T06:57:42.003Z,62.57
2019-05-25T06:58:29.631Z,62.95
2019-05-25T06:59:28.600Z,62.34
2019-05-25T07:00:28.592Z,62.45
2019-05-25T07:01:28.575Z,62.34
2019-05-25T07:02:28.562Z,62.04
2019-05-25T07:03:28.602Z,62.24
2019-05-25T07:04:28.545Z,61.83
2019-05-25T07:05:28.591Z,63.06
2019-05-25T07:06:28.531Z,63.26
2019-05-25T07:07:28.511Z,63.26
2019-05-25T07:08:28.517Z,62.65
2019-05-25T07:09:28.489Z,62.54
2019-05-25T07:10:28.480Z,63.35
2019-05-25T07:11:28.476Z,62.95
2019-05-25T07:12:28.463Z,62.95
2019-05-25T07:13:28.768Z,62.57
2019-05-25T07:14:28.445Z,63.18
2019-05-25T07:15:28.431Z,62.57
2019-05-25T07:16:28.425Z,63.89
2019-05-25T07:17:28.412Z,63.89
2019-05-25T07:18:28.410Z,63.39
2019-05-25T07:19:28.385Z,63.35
2019-05-25T07:20:28.374Z,62.65
2019-05-25T07:21:28.361Z,63.15
2019-05-25T07:22:28.349Z,63.06
2019-05-25T07:23:28.359Z,62.95
2019-05-25T07:24:28.342Z,63.89
2019-05-25T07:25:28.322Z,64.00
2019-05-25T07:26:28.312Z,63.18
2019-05-25T07:27:28.296Z,64.20
2019-05-25T07:28:29.357Z,64.10
2019-05-25T07:29:28.283Z,64.03
2019-05-25T07:30:28.264Z,63.89
2019-05-25T07:31:28.252Z,64.00
2019-05-25T07:32:28.242Z,62.65
2019-05-25T07:33:28.256Z,62.65
2019-05-25T07:34:28.251Z,62.92
2019-05-25T07:35:28.217Z,63.23
2019-05-25T07:36:28.203Z,62.41
2019-05-25T07:37:28.194Z,62.52
2019-05-25T07:38:28.182Z,62.79
2019-05-25T07:39:28.186Z,62.41
2019-05-25T07:40:28.155Z,62.41
2019-05-25T07:41:28.151Z,63.32
2019-05-25T07:42:28.133Z,63.30
2019-05-25T07:43:28.126Z,62.41
2019-05-25T07:44:28.137Z,62.89
2019-05-25T07:45:28.136Z,63.23
2019-05-25T07:46:28.099Z,62.99
2019-05-25T07:47:28.089Z,62.89
2019-05-25T07:48:28.095Z,62.89
2019-05-25T07:49:28.064Z,62.49
2019-05-25T07:50:28.053Z,62.49
2019-05-25T07:51:28.042Z,63.23
2019-05-25T07:52:28.040Z,63.12
2019-05-25T07:53:28.041Z,63.93
2019-05-25T07:54:28.011Z,64.07
2019-05-25T07:55:27.997Z,64.04
2019-05-25T07:56:27.988Z,64.04
2019-05-25T07:57:28.760Z,63.93
2019-05-25T07:58:27.996Z,63.73
2019-05-25T07:59:27.977Z,63.93
2019-05-25T08:00:27.941Z,63.73
2019-05-25T08:01:27.945Z,63.93
2019-05-25T08:02:27.928Z,64.78
2019-05-25T08:03:27.974Z,64.47
2019-05-25T08:04:27.916Z,64.07
2019-05-25T08:05:27.899Z,64.70
2019-05-25T08:06:27.884Z,65.01
2019-05-25T08:07:27.871Z,64.81
2019-05-25T08:08:27.896Z,65.01
2019-05-25T08:09:27.861Z,64.91
2019-05-25T08:10:27.845Z,65.01
2019-05-25T08:11:27.832Z,64.58
2019-05-25T08:12:27.815Z,64.34
2019-05-25T08:13:27.945Z,63.83
2019-05-25T08:14:28.045Z,64.34
2019-05-25T08:15:27.789Z,64.34
2019-05-25T08:16:27.781Z,64.64
2019-05-25T08:17:27.767Z,64.54
2019-05-25T08:18:27.827Z,64.34
2019-05-25T08:19:27.745Z,64.34
2019-05-25T08:20:27.730Z,64.51
2019-05-25T08:21:27.722Z,64.44
2019-05-25T08:22:27.710Z,64.34
2019-05-25T08:23:27.715Z,64.14
2019-05-25T08:24:27.691Z,64.34
2019-05-25T08:25:27.679Z,64.54
2019-05-25T08:26:27.681Z,64.61
2019-05-25T08:27:27.662Z,64.72
2019-05-25T08:28:32.835Z,63.93
2019-05-25T08:29:28.849Z,64.24
2019-05-25T08:30:27.621Z,64.14
2019-05-25T08:31:27.611Z,64.24
2019-05-25T08:32:27.608Z,64.11
2019-05-25T08:33:27.625Z,64.31
2019-05-25T08:34:27.608Z,63.90
2019-05-25T08:35:27.579Z,63.90
2019-05-25T08:36:29.739Z,64.21
2019-05-25T08:37:27.553Z,64.85
2019-05-25T08:38:27.671Z,65.05
2019-05-25T08:39:27.569Z,65.48
2019-05-25T08:40:27.520Z,65.08
2019-05-25T08:41:27.507Z,65.39
2019-05-25T08:44:28.809Z,65.08
2019-05-25T08:45:27.489Z,65.48
2019-05-25T08:46:27.458Z,65.48
2019-05-25T08:48:28.628Z,65.08
2019-05-25T08:49:27.690Z,64.64
2019-05-25T08:50:37.869Z,64.75
2019-05-25T08:51:28.607Z,64.41
2019-05-25T08:52:27.579Z,63.70
2019-05-25T08:53:40.531Z,63.57
2019-05-25T08:54:28.497Z,63.13
2019-05-25T08:55:27.481Z,62.84
2019-05-25T08:56:27.359Z,61.72
2019-05-25T08:57:27.348Z,61.79
2019-05-25T08:58:27.333Z,61.19
2019-05-25T08:59:27.338Z,61.16
2019-05-25T09:00:27.313Z,60.45
2019-05-25T09:01:27.310Z,60.14
2019-05-25T09:02:27.301Z,59.64
2019-05-25T09:03:27.281Z,59.87
2019-05-25T09:04:27.335Z,60.07
2019-05-25T09:05:27.269Z,60.50
2019-05-25T09:06:27.245Z,60.71
2019-05-25T09:07:27.245Z,61.11
2019-05-25T09:08:27.236Z,60.41
2019-05-25T09:09:27.235Z,61.21
2019-05-25T09:10:27.224Z,61.21
2019-05-25T09:11:27.248Z,61.11
2019-05-25T09:12:27.174Z,61.11
2019-05-25T09:13:27.171Z,60.84
2019-05-25T09:14:27.276Z,61.44
2019-05-25T09:15:27.182Z,61.85
2019-05-25T09:16:27.138Z,62.05
2019-05-25T09:17:27.118Z,61.95
2019-05-25T09:18:27.117Z,62.05
2019-05-25T09:19:27.117Z,61.44
2019-05-25T09:20:27.089Z,61.14
2019-05-25T09:21:27.082Z,62.05
2019-05-25T09:22:27.073Z,60.81
2019-05-25T09:23:27.055Z,61.01
2019-05-25T09:24:27.062Z,60.88
2019-05-25T09:25:27.054Z,60.65
2019-05-25T09:26:27.024Z,59.74
2019-05-25T09:27:27.032Z,58.50
2019-05-25T09:28:27.017Z,58.80
2019-05-25T09:29:27.012Z,58.80
2019-05-25T09:30:27.015Z,58.73
2019-05-25T09:31:26.973Z,58.63
2019-05-25T09:32:26.957Z,59.64
2019-05-25T09:33:26.950Z,59.64
2019-05-25T09:34:26.964Z,58.43
2019-05-25T09:35:26.930Z,58.93
2019-05-25T09:36:26.927Z,58.63
2019-05-25T09:37:26.906Z,58.96
2019-05-25T09:38:26.895Z,58.65
2019-05-25T09:39:26.985Z,58.86
2019-05-25T09:40:26.871Z,59.70
2019-05-25T09:41:26.884Z,59.70
2019-05-25T09:42:26.860Z,60.00
2019-05-25T09:43:26.840Z,60.00
2019-05-25T09:44:26.878Z,60.30
2019-05-25T09:45:26.835Z,60.20
2019-05-25T09:46:26.818Z,60.00
2019-05-25T09:47:26.847Z,60.41
2019-05-25T09:48:26.805Z,60.81
2019-05-25T09:49:26.797Z,60.30
2019-05-25T09:50:26.767Z,60.41
2019-05-25T09:51:26.759Z,59.56
2019-05-25T09:52:26.762Z,59.87
2019-05-25T09:53:26.749Z,58.43
2019-05-25T09:54:26.741Z,58.73
2019-05-25T09:55:26.713Z,58.63
2019-05-25T09:56:26.735Z,58.70
2019-05-25T09:57:26.729Z,58.20
2019-05-25T09:58:26.699Z,58.00
2019-05-25T09:59:26.697Z,58.60
2019-05-25T10:00:26.655Z,58.40
2019-05-25T10:01:26.652Z,58.00
2019-05-25T10:02:26.641Z,57.76
2019-05-25T10:03:26.634Z,57.76
2019-05-25T10:04:26.646Z,57.06
2019-05-25T10:05:26.611Z,56.68
2019-05-25T10:06:26.594Z,56.98
2019-05-25T10:07:26.587Z,56.68
2019-05-25T10:08:26.581Z,57.21
2019-05-25T10:09:26.591Z,56.58
2019-05-25T10:10:26.566Z,56.68
2019-05-25T10:11:26.543Z,56.18
2019-05-25T10:12:26.537Z,55.65
2019-05-25T10:13:26.521Z,55.47
2019-05-25T10:14:26.539Z,55.94
2019-05-25T10:15:28.464Z,56.12
2019-05-25T10:16:26.495Z,55.21
2019-05-25T10:17:26.496Z,55.19
2019-05-25T10:18:26.466Z,54.96
2019-05-25T10:19:26.618Z,54.33
2019-05-25T10:20:26.453Z,53.14
2019-05-25T10:21:26.469Z,53.85
2019-05-25T10:22:26.461Z,54.48
2019-05-25T10:23:26.420Z,54.58
2019-05-25T10:24:26.401Z,55.49
2019-05-25T10:25:26.419Z,54.99
2019-05-25T10:26:26.399Z,54.68
2019-05-25T10:27:26.391Z,54.71
2019-05-25T10:28:26.367Z,55.11
2019-05-25T10:29:36.616Z,55.54
2019-05-25T10:30:27.362Z,56.78
2019-05-25T10:31:26.330Z,57.09
2019-05-25T10:32:26.319Z,56.58
2019-05-25T10:33:26.317Z,56.76
2019-05-25T10:34:26.295Z,56.23
2019-05-25T10:35:26.337Z,55.62
2019-05-25T10:36:26.279Z,55.69
2019-05-25T10:37:26.264Z,54.58
2019-05-25T10:38:26.252Z,55.16
2019-05-25T10:39:26.250Z,54.96
2019-05-25T10:40:26.270Z,54.79
2019-05-25T10:41:26.234Z,54.89
2019-05-25T10:42:26.299Z,54.86
2019-05-25T10:43:26.211Z,54.36
2019-05-25T10:44:26.193Z,54.36
2019-05-25T10:45:26.221Z,54.68
2019-05-25T10:46:26.208Z,55.39
2019-05-25T10:47:26.161Z,54.96
2019-05-25T10:48:26.147Z,54.86
2019-05-25T10:49:26.143Z,54.89
2019-05-25T10:50:26.173Z,54.86
2019-05-25T10:51:26.108Z,54.89
2019-05-25T10:52:26.106Z,55.16
2019-05-25T10:53:26.089Z,54.86
2019-05-25T10:54:26.094Z,54.56
2019-05-25T10:55:26.086Z,54.56
2019-05-25T10:56:26.082Z,53.72
2019-05-25T10:57:26.067Z,53.14
2019-05-25T10:58:26.039Z,54.25
2019-05-25T10:59:26.024Z,54.25
2019-05-25T11:00:26.039Z,54.76
2019-05-25T11:01:26.012Z,54.48
2019-05-25T11:02:26.004Z,54.28
2019-05-25T11:03:25.984Z,54.79
2019-05-25T11:04:25.975Z,54.99
2019-05-25T11:05:25.999Z,54.68
2019-05-25T11:06:25.959Z,54.46
2019-05-25T11:07:25.953Z,54.56
2019-05-25T11:08:25.938Z,53.65
2019-05-25T11:09:25.919Z,53.30
2019-05-25T11:10:25.938Z,52.89
2019-05-25T11:11:25.912Z,52.59
2019-05-25T11:12:26.219Z,52.17
2019-05-25T11:13:25.910Z,50.73
2019-05-25T11:14:25.872Z,51.03
2019-05-25T11:15:25.900Z,50.73
2019-05-25T11:16:25.849Z,50.98
2019-05-25T11:17:25.839Z,49.88
2019-05-25T11:18:25.835Z,51.11
2019-05-25T11:19:25.836Z,51.21
2019-05-25T11:20:25.832Z,50.60
2019-05-25T11:21:25.793Z,50.60
2019-05-25T11:22:25.804Z,49.77
2019-05-25T11:23:25.796Z,51.21
2019-05-25T11:24:25.759Z,50.71
2019-05-25T11:25:25.767Z,50.93
2019-05-25T11:26:25.739Z,51.73
2019-05-25T11:27:25.727Z,51.97
2019-05-25T11:28:25.718Z,52.17
2019-05-25T11:29:25.716Z,52.17
2019-05-25T11:30:25.722Z,52.57
2019-05-25T11:31:25.984Z,52.64
2019-05-25T11:32:25.679Z,50.81
2019-05-25T11:33:25.666Z,51.21
2019-05-25T11:34:25.665Z,50.91
2019-05-25T11:35:25.672Z,50.81
2019-05-25T11:37:27.426Z,51.11
2019-05-25T11:38:25.645Z,51.03
2019-05-25T11:39:25.613Z,51.59
2019-05-25T11:40:25.614Z,53.25
2019-05-25T11:41:25.713Z,53.45
2019-05-25T11:42:27.679Z,54.16
2019-05-25T11:44:27.392Z,53.67
2019-05-25T11:45:25.606Z,53.38
2019-05-25T11:46:26.442Z,54.18
2019-05-25T11:47:25.806Z,53.34
2019-05-25T11:48:25.978Z,53.85
2019-05-25T11:49:25.522Z,53.85
2019-05-25T11:50:26.086Z,54.16
2019-05-25T11:51:25.477Z,53.55
2019-05-25T11:52:25.476Z,53.05
2019-05-25T11:53:25.470Z,53.32
2019-05-25T11:54:25.485Z,53.55
2019-05-25T11:55:25.462Z,53.55
2019-05-25T11:56:25.446Z,53.38
2019-05-25T11:57:25.412Z,53.98
2019-05-25T11:58:25.398Z,53.67
2019-05-25T11:59:36.487Z,54.38
2019-05-25T12:00:26.383Z,54.41
2019-05-25T12:01:25.405Z,54.61
2019-05-25T12:03:26.409Z,54.79
2019-05-25T12:04:25.346Z,54.58
2019-05-25T12:05:25.891Z,54.68
2019-05-25T12:06:25.397Z,54.46
2019-05-25T12:07:25.317Z,54.66
2019-05-25T12:08:25.820Z,53.45
2019-05-25T12:09:25.288Z,54.23
2019-05-25T12:10:25.316Z,53.30
2019-05-25T12:11:25.286Z,53.27
2019-05-25T12:12:25.676Z,52.67
2019-05-25T12:13:25.256Z,51.97
2019-05-25T12:14:25.257Z,53.20
2019-05-25T12:15:25.250Z,53.22
2019-05-25T12:16:25.216Z,52.92
2019-05-25T12:17:25.453Z,53.92
2019-05-25T12:19:26.369Z,53.83
2019-05-25T12:20:25.172Z,53.92
2019-05-25T12:21:25.150Z,53.72
2019-05-25T12:22:25.192Z,54.23
2019-05-25T12:23:25.144Z,54.00
2019-05-25T12:24:25.122Z,52.29
2019-05-25T12:25:25.136Z,53.22
2019-05-25T12:26:25.101Z,53.50
2019-05-25T12:27:25.087Z,53.72
2019-05-25T12:28:25.088Z,54.03
2019-05-25T12:29:25.064Z,53.92
2019-05-25T12:30:39.804Z,53.96
2019-05-25T12:31:26.042Z,54.56
2019-05-25T12:32:25.042Z,53.42
2019-05-25T12:33:25.030Z,53.30
2019-05-25T12:34:25.024Z,53.60
2019-05-25T12:35:25.047Z,52.77
2019-05-25T12:36:25.009Z,52.87
2019-05-25T12:37:24.986Z,53.00
2019-05-25T12:38:24.983Z,53.80
2019-05-25T12:39:26.677Z,54.33
2019-05-25T12:40:24.979Z,54.33
2019-05-25T12:41:24.942Z,54.33
2019-05-25T12:42:25.009Z,54.76
2019-05-25T12:43:24.920Z,54.23
2019-05-25T12:44:24.920Z,54.56
2019-05-25T12:45:24.919Z,54.66
2019-05-25T12:46:24.892Z,55.14
2019-05-25T12:47:24.915Z,54.94
2019-05-25T12:48:24.867Z,54.94
2019-05-25T12:49:24.866Z,54.73
2019-05-25T12:50:24.854Z,54.53
2019-05-25T12:51:24.849Z,54.94
2019-05-25T12:52:24.830Z,54.63
2019-05-25T12:53:24.813Z,54.41
2019-05-25T12:54:24.802Z,53.60
2019-05-25T12:55:24.792Z,54.36
2019-05-25T12:56:24.826Z,54.53
2019-05-25T12:57:24.829Z,53.60
2019-05-25T12:58:24.775Z,53.90
2019-05-25T12:59:24.759Z,53.80